createdAt,value
2023-03-27T00:00:13.463Z,0.13
2023-03-27T00:02:48.863Z,0.40
2023-03-27T00:05:21.384Z,0.28
2023-03-27T00:07:55.881Z,0.40
2023-03-27T00:10:29.022Z,0.30
2023-03-27T00:13:03.531Z,0.20
2023-03-27T00:15:39.840Z,0.32
2023-03-27T00:18:13.504Z,0.28
2023-03-27T00:20:45.763Z,0.50
2023-03-27T00:23:20.114Z,0.43
2023-03-27T00:25:52.381Z,0.47
2023-03-27T00:28:27.318Z,0.43
2023-03-27T00:31:02.531Z,0.40
2023-03-27T00:33:34.707Z,0.50
2023-03-27T00:36:07.879Z,0.30
2023-03-27T00:38:40.102Z,0.28
2023-03-27T00:41:12.904Z,0.60
2023-03-27T00:43:45.498Z,0.50
2023-03-27T00:46:32.057Z,0.45
2023-03-27T00:49:08.407Z,0.70
2023-03-27T01:04:31.986Z,1.00
2023-03-27T01:07:07.031Z,1.05
2023-03-27T01:09:39.204Z,0.80
2023-03-27T01:12:22.809Z,0.57
2023-03-27T01:15:16.154Z,1.02
2023-03-27T01:18:02.722Z,0.80
2023-03-27T01:21:08.574Z,0.75
2023-03-27T01:24:05.724Z,0.88
2023-03-27T01:26:58.455Z,0.88
2023-03-27T01:29:47.105Z,0.90
2023-03-27T01:32:46.680Z,0.80
2023-03-27T01:35:52.943Z,1.15
2023-03-27T01:38:54.763Z,0.75
2023-03-27T01:41:33.452Z,1.20
2023-03-27T01:44:14.164Z,1.27
2023-03-27T01:46:50.356Z,1.38
2023-03-27T01:49:28.288Z,0.80
2023-03-27T01:52:03.634Z,1.10
2023-03-27T01:54:38.445Z,1.02
2023-03-27T01:57:22.354Z,0.80
2023-03-27T02:00:17.510Z,1.00
2023-03-27T02:02:56.076Z,0.63
2023-03-27T02:05:32.671Z,0.93
2023-03-27T02:08:10.687Z,0.65
2023-03-27T02:10:48.307Z,0.85
2023-03-27T02:13:27.159Z,1.02
2023-03-27T02:16:02.693Z,0.75
2023-03-27T02:18:38.191Z,1.10
2023-03-27T02:21:10.268Z,1.20
2023-03-27T02:23:43.696Z,1.10
2023-03-27T02:26:15.913Z,1.02
2023-03-27T02:29:08.463Z,1.38
2023-03-27T02:32:02.079Z,1.40
2023-03-27T02:34:50.516Z,1.80
2023-03-27T03:03:28.106Z,1.60
2023-03-27T03:11:14.436Z,1.30
2023-03-27T03:13:46.550Z,1.48
2023-03-27T03:16:21.247Z,1.70
2023-03-27T03:54:38.880Z,2.20
2023-03-27T03:57:11.102Z,1.77
2023-03-27T03:59:43.418Z,1.63
2023-03-27T04:02:30.063Z,2.92
2023-03-27T04:05:08.787Z,2.60
2023-03-27T04:07:42.552Z,2.33
2023-03-27T04:10:14.805Z,2.08
2023-03-27T04:12:47.638Z,1.80
2023-03-27T04:15:20.042Z,2.15
2023-03-27T04:17:54.847Z,1.98
2023-03-27T04:20:27.025Z,1.77
2023-03-27T04:23:02.375Z,1.70
2023-03-27T04:25:34.557Z,1.65
2023-03-27T04:28:06.656Z,1.85
2023-03-27T04:30:38.892Z,1.70
2023-03-27T04:33:19.356Z,1.45
2023-03-27T04:36:06.176Z,1.23
2023-03-27T04:38:40.993Z,1.58
2023-03-27T04:41:13.074Z,1.30
2023-03-27T04:43:46.315Z,1.73
2023-03-27T04:46:18.544Z,1.52
2023-03-27T04:48:53.708Z,1.05
2023-03-27T04:51:26.864Z,1.08
2023-03-27T04:53:59.007Z,1.83
2023-03-27T04:56:34.010Z,2.10
2023-03-27T04:59:06.187Z,1.13
2023-03-27T05:01:38.323Z,1.73
2023-03-27T05:04:13.033Z,1.52
2023-03-27T05:06:45.112Z,1.40
2023-03-27T05:09:17.383Z,1.60
2023-03-27T05:11:50.404Z,1.20
2023-03-27T05:14:23.697Z,1.17
2023-03-27T05:16:58.038Z,1.33
2023-03-27T05:19:32.695Z,1.05
2023-03-27T05:22:04.870Z,1.00
2023-03-27T05:24:37.948Z,1.48
2023-03-27T05:27:10.454Z,1.23
2023-03-27T05:29:47.063Z,1.25
2023-03-27T05:32:19.950Z,1.00
2023-03-27T05:34:57.352Z,0.82
2023-03-27T05:37:29.446Z,0.88
2023-03-27T05:40:01.580Z,0.95
2023-03-27T05:42:33.740Z,0.50
2023-03-27T05:45:06.789Z,1.13
2023-03-27T05:47:44.825Z,1.30
2023-03-27T05:50:21.385Z,1.27
2023-03-27T05:52:57.513Z,1.05
2023-03-27T05:55:30.045Z,1.08
2023-03-27T05:58:02.501Z,1.02
2023-03-27T06:00:37.291Z,0.80
2023-03-27T06:03:12.517Z,1.05
2023-03-27T06:05:49.017Z,1.33
2023-03-27T06:08:21.342Z,0.60
2023-03-27T06:10:54.520Z,1.88
2023-03-27T06:13:26.764Z,1.05
2023-03-27T06:15:59.050Z,1.45
2023-03-27T06:18:32.008Z,0.88
2023-03-27T06:21:07.526Z,0.80
2023-03-27T06:23:39.958Z,1.38
2023-03-27T06:26:12.297Z,1.23
2023-03-27T06:28:44.586Z,1.45
2023-03-27T06:31:17.834Z,1.33
2023-03-27T06:33:50.370Z,1.10
2023-03-27T06:36:25.275Z,0.45
2023-03-27T06:38:57.412Z,0.95
2023-03-27T06:41:29.497Z,1.10
2023-03-27T06:44:01.791Z,0.70
2023-03-27T06:46:43.093Z,1.30
2023-03-27T06:49:17.444Z,1.15
2023-03-27T06:51:52.505Z,0.82
2023-03-27T06:54:24.627Z,1.45
2023-03-27T06:56:56.821Z,1.63
2023-03-27T06:59:28.947Z,0.98
2023-03-27T07:02:01.508Z,1.00
2023-03-27T07:04:33.644Z,0.85
2023-03-27T07:07:08.342Z,1.25
2023-03-27T07:09:41.001Z,1.30
2023-03-27T07:12:13.144Z,1.50
2023-03-27T07:14:45.382Z,0.98
2023-03-27T07:17:17.571Z,1.70
2023-03-27T07:19:49.713Z,0.85
2023-03-27T07:22:24.528Z,0.85
2023-03-27T07:24:56.646Z,1.20
2023-03-27T07:27:28.755Z,0.85
2023-03-27T07:30:01.636Z,1.00
2023-03-27T07:32:37.570Z,1.35
2023-03-27T07:35:11.169Z,0.85
2023-03-27T07:37:46.830Z,1.52
2023-03-27T07:40:26.611Z,0.85
2023-03-27T07:43:07.391Z,1.52
2023-03-27T07:45:39.821Z,1.25
2023-03-27T07:48:16.366Z,0.93
2023-03-27T07:50:48.551Z,1.55
2023-03-27T07:53:33.949Z,0.60
2023-03-27T07:56:08.874Z,3.50
2023-03-27T07:58:41.177Z,1.40
2023-03-27T08:01:13.579Z,1.92
2023-03-27T08:03:47.557Z,1.55
2023-03-27T08:06:19.856Z,1.92
2023-03-27T08:08:54.772Z,2.17
2023-03-27T08:11:30.741Z,1.30
2023-03-27T08:14:03.975Z,1.63
2023-03-27T08:16:36.817Z,1.67
2023-03-27T08:19:10.483Z,0.85
2023-03-27T08:21:42.559Z,1.40
2023-03-27T08:24:17.318Z,1.15
2023-03-27T08:26:49.549Z,0.95
2023-03-27T08:29:21.650Z,0.70
2023-03-27T08:31:54.109Z,1.02
2023-03-27T08:34:26.636Z,0.70
2023-03-27T08:36:58.745Z,1.02
2023-03-27T08:39:33.421Z,1.55
2023-03-27T08:42:08.504Z,0.70
2023-03-27T08:44:40.679Z,0.73
2023-03-27T08:47:17.161Z,0.70
2023-03-27T08:49:55.082Z,0.70
2023-03-27T08:52:32.101Z,0.60
2023-03-27T08:55:15.508Z,1.10
2023-03-27T08:57:50.576Z,0.80
2023-03-27T09:00:27.970Z,0.65
2023-03-27T09:03:08.197Z,0.73
2023-03-27T09:05:44.770Z,1.35
2023-03-27T09:08:28.006Z,0.63
2023-03-27T09:11:09.487Z,0.88
2023-03-27T09:13:45.968Z,0.98
2023-03-27T09:16:22.947Z,0.70
2023-03-27T09:19:01.546Z,1.00
2023-03-27T09:21:40.270Z,0.77
2023-03-27T09:24:17.616Z,1.08
2023-03-27T09:27:04.481Z,0.88
2023-03-27T09:29:41.560Z,0.52
2023-03-27T09:32:15.715Z,0.43
2023-03-27T09:34:48.310Z,0.82
2023-03-27T09:37:20.467Z,0.50
2023-03-27T09:39:54.836Z,0.50
2023-03-27T09:42:33.476Z,0.98
2023-03-27T09:45:08.392Z,0.98
2023-03-27T09:47:45.260Z,0.93
2023-03-27T09:50:27.665Z,0.55
2023-03-27T09:53:08.763Z,0.60
2023-03-27T09:55:53.114Z,0.52
2023-03-27T10:01:16.882Z,1.17
2023-03-27T10:06:28.468Z,0.50
2023-03-27T10:09:07.408Z,0.57
2023-03-27T10:11:40.270Z,1.00
2023-03-27T10:14:18.969Z,0.45
2023-03-27T10:16:51.211Z,0.43
2023-03-27T10:19:27.893Z,0.60
2023-03-27T10:22:04.484Z,0.65
2023-03-27T10:24:45.820Z,0.68
2023-03-27T10:27:20.634Z,0.57
2023-03-27T10:29:55.337Z,0.22
2023-03-27T10:32:43.383Z,0.85
2023-03-27T10:35:27.491Z,0.60
2023-03-27T10:38:01.422Z,0.52
2023-03-27T10:40:37.067Z,0.30
2023-03-27T10:43:12.846Z,0.50
2023-03-27T10:45:51.905Z,0.85
2023-03-27T10:48:37.450Z,0.60
2023-03-27T10:51:43.124Z,0.45
2023-03-27T10:54:33.034Z,0.80
2023-03-27T10:57:12.639Z,0.55
2023-03-27T10:59:50.811Z,0.77
2023-03-27T11:05:04.481Z,0.63
2023-03-27T11:07:42.659Z,0.50
2023-03-27T11:10:20.018Z,1.33
2023-03-27T11:12:56.281Z,1.38
2023-03-27T11:15:33.308Z,1.65
2023-03-27T11:20:47.476Z,1.38
2023-03-27T11:25:55.102Z,0.45
2023-03-27T11:28:39.803Z,0.50
2023-03-27T11:31:19.198Z,0.50
2023-03-27T11:34:00.347Z,0.43
2023-03-27T11:36:46.692Z,1.13
2023-03-27T11:39:25.426Z,0.65
2023-03-27T11:42:00.232Z,1.35
2023-03-27T11:44:32.365Z,0.80
2023-03-27T11:47:23.663Z,0.32
2023-03-27T11:50:09.090Z,0.85
2023-03-27T11:52:52.326Z,0.50
2023-03-27T11:55:33.173Z,0.45
2023-03-27T11:58:19.737Z,1.00
2023-03-27T12:01:02.028Z,0.93
2023-03-27T12:04:09.426Z,0.63
2023-03-27T12:06:58.125Z,0.82
2023-03-27T12:09:52.689Z,0.57
2023-03-27T12:12:39.075Z,0.90
2023-03-27T12:15:26.845Z,0.68
2023-03-27T12:18:05.749Z,0.68
2023-03-27T12:20:53.413Z,0.52
2023-03-27T12:23:57.951Z,1.67
2023-03-27T12:27:03.164Z,0.40
2023-03-27T12:29:53.746Z,2.25
2023-03-27T12:32:54.766Z,2.22
2023-03-27T12:35:31.641Z,3.25
2023-03-27T12:38:08.503Z,2.90
2023-03-27T12:40:49.792Z,1.90
2023-03-27T12:43:27.779Z,1.83
2023-03-27T12:46:11.498Z,1.42
2023-03-27T12:48:52.878Z,1.15
2023-03-27T12:51:38.275Z,1.77
2023-03-27T12:54:25.183Z,1.02
2023-03-27T12:57:06.796Z,0.98
2023-03-27T12:59:40.590Z,0.90
2023-03-27T13:02:52.282Z,1.50
2023-03-27T13:05:40.471Z,1.15
2023-03-27T13:08:45.578Z,0.95
2023-03-27T13:11:35.993Z,1.77
2023-03-27T13:17:21.333Z,1.02
2023-03-27T13:19:59.707Z,1.45
2023-03-27T13:22:48.312Z,1.17
2023-03-27T13:25:43.785Z,1.58
2023-03-27T13:28:31.527Z,1.58
2023-03-27T13:31:06.054Z,1.48
2023-03-27T13:33:45.783Z,1.70
2023-03-27T13:36:20.925Z,1.02
2023-03-27T13:39:24.865Z,1.73
2023-03-27T13:42:02.794Z,1.48
2023-03-27T13:44:47.162Z,1.05
2023-03-27T13:47:49.224Z,1.70
2023-03-27T13:51:03.341Z,1.05
2023-03-27T13:53:56.755Z,1.17
2023-03-27T13:56:48.821Z,1.23
2023-03-27T13:59:58.585Z,1.30
2023-03-27T14:02:58.507Z,0.70
2023-03-27T14:06:14.952Z,0.77
2023-03-27T14:11:38.135Z,0.98
2023-03-27T14:14:40.683Z,0.52
2023-03-27T14:17:31.796Z,0.68
2023-03-27T14:20:21.024Z,1.45
2023-03-27T14:22:58.162Z,0.80
2023-03-27T14:25:34.397Z,1.33
2023-03-27T14:28:10.497Z,0.77
2023-03-27T14:30:45.531Z,0.47
2023-03-27T14:33:20.261Z,0.55
2023-03-27T14:35:54.841Z,0.75
2023-03-27T14:38:31.084Z,0.28
2023-03-27T14:41:05.288Z,0.35
2023-03-27T14:43:37.462Z,0.20
2023-03-27T14:46:11.974Z,0.20
2023-03-27T14:48:46.221Z,0.93
2023-03-27T14:51:20.845Z,0.38
2023-03-27T14:54:02.432Z,0.43
2023-03-27T14:56:38.175Z,0.30
2023-03-27T14:59:14.012Z,0.38
2023-03-27T15:01:47.601Z,0.45
2023-03-27T15:19:49.132Z,0.80
2023-03-27T15:22:27.830Z,0.75
2023-03-27T15:25:05.687Z,0.47
2023-03-27T15:27:40.886Z,0.98
2023-03-27T15:30:25.486Z,1.13
2023-03-27T15:33:02.273Z,0.57
2023-03-27T15:35:37.046Z,0.75
2023-03-27T15:38:14.300Z,0.40
2023-03-27T15:41:00.673Z,0.50
2023-03-27T15:43:34.320Z,0.30
2023-03-27T15:46:17.296Z,0.55
2023-03-27T15:48:55.544Z,0.25
2023-03-27T15:51:30.064Z,0.50
2023-03-27T15:54:29.246Z,0.95
2023-03-27T15:57:10.148Z,0.70
2023-03-27T15:59:52.560Z,0.10
2023-03-27T16:02:26.699Z,0.60
2023-03-27T16:04:59.529Z,0.52
2023-03-27T16:07:43.884Z,0.50
2023-03-27T16:13:03.198Z,0.70
2023-03-27T16:15:37.586Z,0.77
2023-03-27T16:18:18.862Z,0.70
2023-03-27T16:20:51.168Z,0.25
2023-03-27T16:23:23.269Z,0.47
2023-03-27T16:25:58.910Z,0.13
2023-03-27T16:28:31.703Z,0.68
2023-03-27T16:31:12.085Z,0.38
2023-03-27T16:33:46.179Z,0.30
2023-03-27T16:36:20.862Z,0.63
2023-03-27T16:38:53.085Z,0.22
2023-03-27T16:41:27.854Z,0.68
2023-03-27T16:46:32.571Z,0.52
2023-03-27T16:49:04.905Z,0.30
2023-03-27T16:51:37.015Z,0.30
2023-03-27T16:54:09.137Z,0.70
2023-03-27T18:56:53.918Z,1.80
2023-03-27T18:59:28.634Z,1.10
2023-03-27T19:02:00.908Z,1.20
2023-03-27T19:04:33.033Z,0.98
2023-03-27T19:07:06.567Z,1.20
2023-03-27T19:09:41.892Z,0.73
2023-03-27T19:12:14.241Z,1.25
2023-03-27T19:14:48.967Z,0.90
2023-03-27T19:17:21.271Z,1.23
2023-03-27T19:19:55.021Z,1.50
2023-03-27T19:22:27.127Z,1.30
2023-03-27T19:24:59.230Z,1.20
2023-03-27T19:27:38.508Z,1.60
2023-03-27T19:30:15.002Z,1.52
2023-03-27T19:32:47.135Z,1.02
2023-03-27T19:35:20.289Z,1.40
2023-03-27T19:37:52.596Z,1.40
2023-03-27T19:40:24.841Z,1.10
2023-03-27T19:42:56.965Z,0.88
2023-03-27T19:45:31.654Z,0.90
2023-03-27T19:55:42.385Z,0.82
2023-03-27T19:58:14.590Z,0.95
2023-03-27T20:00:50.907Z,0.88
2023-03-27T20:06:07.640Z,0.63
2023-03-27T20:08:41.068Z,0.55
2023-03-27T22:21:50.340Z,0.95
2023-03-27T22:24:22.583Z,0.65
2023-03-27T22:26:54.772Z,0.80
2023-03-27T22:29:26.909Z,1.00
2023-03-27T22:31:59.251Z,0.70
2023-03-27T22:34:33.978Z,0.75
2023-03-27T22:37:06.878Z,0.47
2023-03-27T22:39:39.058Z,0.90
2023-03-27T22:42:11.491Z,0.82
2023-03-27T22:44:43.846Z,0.85
2023-03-27T22:47:16.207Z,0.65
2023-03-27T22:49:51.184Z,1.17
2023-03-27T22:52:23.287Z,0.63
2023-03-27T22:54:55.609Z,1.30
2023-03-27T22:57:27.703Z,0.80
2023-03-27T22:59:59.799Z,1.27
2023-03-27T23:02:31.941Z,0.77
2023-03-27T23:05:07.404Z,1.13
2023-03-27T23:07:39.478Z,0.80
2023-03-27T23:10:11.674Z,0.80
2023-03-27T23:12:43.762Z,0.93
2023-03-27T23:15:16.165Z,1.00
2023-03-27T23:18:02.843Z,0.90
2023-03-27T23:20:37.566Z,0.85
2023-03-27T23:23:09.635Z,1.20
2023-03-27T23:25:42.691Z,1.10
2023-03-27T23:28:14.873Z,0.43
2023-03-27T23:30:53.172Z,1.27
2023-03-27T23:36:06.193Z,0.88
2023-03-27T23:38:39.032Z,0.40
2023-03-27T23:41:12.848Z,1.05
2023-03-27T23:43:45.449Z,0.75
2023-03-27T23:46:17.755Z,1.13
2023-03-27T23:48:49.945Z,0.95
2023-03-27T23:51:24.639Z,0.82
2023-03-27T23:53:56.704Z,0.90
2023-03-27T23:56:28.759Z,0.68
